Time;durP1;ratioP1;P1;durP2;ratioP2;P2;SDS_P1;SDS_P2;PMS_P1;PMS_P2;Temp;Humidity;BMP_temperature;BMP_pressure;BME280_temperature;BME280_humidity;BME280_pressure;Samples;Min_cycle;Max_cycle;Signal;HPM_P1;HPM_P2
2023/04/20 00:02:02;;;;;;;;;;;;;;;;;;5074772;28;797;-69
2023/04/20 00:04:28;;;;;;;;;;;;;;;;;;5075405;28;825;-69
2023/04/20 00:06:55;;;;;;;;;;;;;;;;;;5075391;28;825;-69
2023/04/20 00:09:21;;;;;;;;;;;;;;;;;;5075821;28;837;-69
2023/04/20 00:11:46;;;;;;;;;;;;;;;;;;5075445;28;884;-68
2023/04/20 00:14:11;;;;;;;;;;;;;;;;;;5074759;28;1217;-68
2023/04/20 00:16:37;;;;;;;;;;;;;;;;;;5074262;28;1961;-69
2023/04/20 00:19:03;;;;;;;;;;;;;;;;;;5074824;28;1225;-69
2023/04/20 00:21:28;;;;;;;;;;;;;;;;;;5076133;28;888;-69
2023/04/20 00:23:54;;;;;;;;;;;;;;;;;;5075932;28;1073;-69
2023/04/20 00:26:20;;;;;;;;;;;;;;;;;;5076339;28;825;-69
2023/04/20 00:28:45;;;;;;;;;;;;;;;;;;5074516;28;1189;-69
2023/04/20 00:31:10;;;;;;;;;;;;;;;;;;5074539;28;900;-69
2023/04/20 00:33:36;;;;;;;;;;;;;;;;;;5074017;28;1260;-68
2023/04/20 00:36:01;;;;;;;;;;;;;;;;;;5074824;28;1909;-68
2023/04/20 00:38:27;;;;;;;;;;;;;;;;;;5075336;28;917;-69
2023/04/20 00:40:53;;;;;;;;;;;;;;;;;;5074229;28;948;-68
2023/04/20 00:43:19;;;;;;;;;;;;;;;;;;5075538;28;848;-69
2023/04/20 00:45:45;;;;;;;;;;;;;;;;;;5075364;28;880;-69
2023/04/20 00:48:11;;;;;;;;;;;;;;;;;;5073841;28;1426;-69
2023/04/20 00:50:36;;;;;;;;;;;;;;;;;;5075115;28;987;-69
2023/04/20 00:53:02;;;;;;;;;;;;;;;;;;5074087;28;1338;-69
2023/04/20 00:55:28;;;;;;;;;;;;;;;;;;5073165;28;1918;-69
2023/04/20 00:57:54;;;;;;;;;;;;;;;;;;5073157;28;1345;-69
2023/04/20 01:00:19;;;;;;;;;;;;;;;;;;5074359;28;895;-69
2023/04/20 01:02:44;;;;;;;;;;;;;;;;;;5090233;28;1284;-68
2023/04/20 01:05:09;;;;;;;;;;;;;;;;;;5073185;28;840;-69
2023/04/20 01:07:35;;;;;;;;;;;;;;;;;;5073454;28;1371;-69
2023/04/20 01:10:01;;;;;;;;;;;;;;;;;;5056556;28;1203;-69
2023/04/20 01:12:26;;;;;;;;;;;;;;;;;;5073777;28;891;-68
2023/04/20 01:14:51;;;;;;;;;;;;;;;;;;5073008;28;1919;-69
2023/04/20 01:17:17;;;;;;;;;;;;;;;;;;5073044;28;900;-69
2023/04/20 01:19:43;;;;;;;;;;;;;;;;;;5074400;28;821;-69
2023/04/20 01:22:13;;;;;;;;;;;;;;;;;;5075452;28;790;-69
2023/04/20 01:24:38;;;;;;;;;;;;;;;;;;5075983;28;983;-69
2023/04/20 01:27:03;;;;;;;;;;;;;;;;;;5073187;28;919;-69
2023/04/20 01:29:29;;;;;;;;;;;;;;;;;;5073061;28;860;-69
2023/04/20 01:31:54;;;;;;;;;;;;;;;;;;5073396;28;825;-69
2023/04/20 01:34:19;;;;;;;;;;;;;;;;;;5055432;28;1357;-70
2023/04/20 01:36:45;;;;;;;;;;;;;;;;;;5072955;28;1969;-69
2023/04/20 01:39:11;;;;;;;;;;;;;;;;;;5071794;28;786;-70
2023/04/20 01:41:36;;;;;;;;;;;;;;;;;;5071955;28;833;-69
2023/04/20 01:44:01;;;;;;;;;;;;;;;;;;5071668;28;1276;-69
2023/04/20 01:46:26;;;;;;;;;;;;;;;;;;5071240;28;910;-69
2023/04/20 01:48:52;;;;;;;;;;;;;;;;;;5073405;28;904;-69
2023/04/20 01:51:17;;;;;;;;;;;;;;;;;;5072024;28;887;-69
2023/04/20 01:53:43;;;;;;;;;;;;;;;;;;5073573;28;925;-70
2023/04/20 01:56:08;;;;;;;;;;;;;;;;;;5071735;28;1910;-69
2023/04/20 01:58:33;;;;;;;;;;;;;;;;;;5073255;28;837;-70
2023/04/20 02:01:00;;;;;;;;;;;;;;;;;;5071831;28;1435;-69
2023/04/20 02:03:25;;;;;;;;;;;;;;;;;;5071527;28;1313;-69
2023/04/20 02:05:50;;;;;;;;;;;;;;;;;;5072430;28;1271;-69
2023/04/20 02:08:16;;;;;;;;;;;;;;;;;;5071497;28;1236;-69
2023/04/20 02:10:41;;;;;;;;;;;;;;;;;;5072384;28;844;-69
2023/04/20 02:13:06;;;;;;;;;;;;;;;;;;5071921;28;943;-69
2023/04/20 02:15:32;;;;;;;;;;;;;;;;;;5073258;28;1906;-70
2023/04/20 02:17:57;;;;;;;;;;;;;;;;;;5073004;28;809;-70
2023/04/20 02:20:23;;;;;;;;;;;;;;;;;;5072528;28;1010;-69
2023/04/20 02:22:49;;;;;;;;;;;;;;;;;;5072609;28;891;-69
2023/04/20 02:25:14;;;;;;;;;;;;;;;;;;5070725;28;1197;-69
2023/04/20 02:27:40;;;;;;;;;;;;;;;;;;5071319;28;1304;-68
2023/04/20 02:30:05;;;;;;;;;;;;;;;;;;5070856;28;1175;-68
2023/04/20 02:32:31;;;;;;;;;;;;;;;;;;5071855;28;1118;-68
2023/04/20 02:34:57;;;;;;;;;;;;;;;;;;5072253;28;1890;-69
2023/04/20 02:37:22;;;;;;;;;;;;;;;;;;5070470;28;1421;-69
2023/04/20 02:39:47;;;;;;;;;;;;;;;;;;5072253;28;833;-69
2023/04/20 02:42:13;;;;;;;;;;;;;;;;;;5072422;28;826;-68
2023/04/20 02:44:38;;;;;;;;;;;;;;;;;;5070528;28;777;-68
2023/04/20 02:47:03;;;;;;;;;;;;;;;;;;5072872;28;1228;-68
2023/04/20 02:49:28;;;;;;;;;;;;;;;;;;5074744;28;1058;-69
2023/04/20 02:51:54;;;;;;;;;;;;;;;;;;5074169;28;845;-68
2023/04/20 02:54:19;;;;;;;;;;;;;;;;;;5073651;28;897;-69
2023/04/20 02:56:44;;;;;;;;;;;;;;;;;;5076110;28;1914;-68
2023/04/20 02:59:10;;;;;;;;;;;;;;;;;;5078975;28;836;-69
2023/04/20 03:01:35;;;;;;;;;;;;;;;;;;5080106;28;877;-68
2023/04/20 03:04:00;;;;;;;;;;;;;;;;;;5078191;28;1169;-68
2023/04/20 03:06:26;;;;;;;;;;;;;;;;;;5082872;28;1114;-68
2023/04/20 03:08:52;;;;;;;;;;;;;;;;;;5083751;28;1221;-69
2023/04/20 03:11:17;;;;;;;;;;;;;;;;;;5084522;28;997;-69
2023/04/20 03:13:42;;;;;;;;;;;;;;;;;;5080944;28;824;-68
2023/04/20 03:16:08;;;;;;;;;;;;;;;;;;5080507;28;1918;-68
2023/04/20 03:18:33;;;;;;;;;;;;;;;;;;5078679;28;936;-69
2023/04/20 03:20:58;;;;;;;;;;;;;;;;;;5078339;28;1198;-69
2023/04/20 03:23:23;;;;;;;;;;;;;;;;;;5078492;28;1054;-68
2023/04/20 03:25:49;;;;;;;;;;;;;;;;;;5079635;28;1054;-68
2023/04/20 03:28:15;;;;;;;;;;;;;;;;;;5080061;28;1051;-68
2023/04/20 03:30:41;;;;;;;;;;;;;;;;;;5078367;28;1393;-67
2023/04/20 03:33:06;;;;;;;;;;;;;;;;;;5078504;28;1298;-67
2023/04/20 03:35:31;;;;;;;;;;;;;;;;;;5078021;28;1906;-68
2023/04/20 03:37:57;;;;;;;;;;;;;;;;;;5079294;28;1284;-68
2023/04/20 03:40:22;;;;;;;;;;;;;;;;;;5076574;28;940;-68
2023/04/20 03:42:47;;;;;;;;;;;;;;;;;;5075075;28;1289;-69
2023/04/20 03:45:12;;;;;;;;;;;;;;;;;;5076713;28;868;-68
2023/04/20 03:47:38;;;;;;;;;;;;;;;;;;5075070;28;825;-68
2023/04/20 03:50:03;;;;;;;;;;;;;;;;;;5076063;28;856;-68
2023/04/20 03:52:29;;;;;;;;;;;;;;;;;;5075014;28;1037;-68
2023/04/20 03:54:54;;;;;;;;;;;;;;;;;;5075911;28;1976;-68
2023/04/20 03:57:19;;;;;;;;;;;;;;;;;;5075843;28;825;-68
2023/04/20 03:59:45;;;;;;;;;;;;;;;;;;5058694;28;1242;-69
2023/04/20 04:02:12;;;;;;;;;;;;;;;;;;5074069;28;1219;-70
2023/04/20 04:04:37;;;;;;;;;;;;;;;;;;5074675;28;1419;-68
2023/04/20 04:07:03;;;;;;;;;;;;;;;;;;5074583;28;1292;-68
2023/04/20 04:09:28;;;;;;;;;;;;;;;;;;5057159;28;1365;-68
2023/04/20 04:11:54;;;;;;;;;;;;;;;;;;5074688;28;888;-69
2023/04/20 04:14:19;;;;;;;;;;;;;;;;;;5075574;28;915;-69
2023/04/20 04:16:45;;;;;;;;;;;;;;;;;;5074236;28;1902;-69
2023/04/20 04:19:10;;;;;;;;;;;;;;;;;;5057311;28;1472;-68
2023/04/20 04:21:36;;;;;;;;;;;;;;;;;;5075265;28;841;-69
2023/04/20 04:24:02;;;;;;;;;;;;;;;;;;5057858;28;1203;-69
2023/04/20 04:26:27;;;;;;;;;;;;;;;;;;5074952;28;828;-69
2023/04/20 04:28:54;;;;;;;;;;;;;;;;;;5075607;28;912;-68
2023/04/20 04:31:20;;;;;;;;;;;;;;;;;;5074124;28;1410;-68
2023/04/20 04:33:46;;;;;;;;;;;;;;;;;;5075339;28;858;-69
2023/04/20 04:36:14;;;;;;;;;;;;;;;;;;5075154;28;1910;-69
2023/04/20 04:38:39;;;;;;;;;;;;;;;;;;5075376;28;1076;-69
2023/04/20 04:41:05;;;;;;;;;;;;;;;;;;5057507;28;1310;-69
2023/04/20 04:43:30;;;;;;;;;;;;;;;;;;5057026;28;1302;-69
2023/04/20 04:45:57;;;;;;;;;;;;;;;;;;5073809;28;824;-69
2023/04/20 04:48:22;;;;;;;;;;;;;;;;;;5057283;28;1235;-69
2023/04/20 04:50:48;;;;;;;;;;;;;;;;;;5075606;28;852;-69
2023/04/20 04:53:13;;;;;;;;;;;;;;;;;;5091553;28;1409;-68
2023/04/20 04:55:38;;;;;;;;;;;;;;;;;;5057249;28;1921;-69
2023/04/20 04:58:03;;;;;;;;;;;;;;;;;;5075163;28;897;-69
2023/04/20 05:00:30;;;;;;;;;;;;;;;;;;5074610;28;896;-68
2023/04/20 05:02:55;;;;;;;;;;;;;;;;;;5075074;28;916;-68
2023/04/20 05:05:21;;;;;;;;;;;;;;;;;;5073111;28;849;-69
2023/04/20 05:07:46;;;;;;;;;;;;;;;;;;5074343;28;912;-69
2023/04/20 05:10:12;;;;;;;;;;;;;;;;;;5072812;28;939;-68
2023/04/20 05:12:37;;;;;;;;;;;;;;;;;;5056314;28;1231;-68
2023/04/20 05:15:03;;;;;;;;;;;;;;;;;;5073927;28;1906;-68
2023/04/20 05:17:28;;;;;;;;;;;;;;;;;;5073562;28;926;-69
2023/04/20 05:19:54;;;;;;;;;;;;;;;;;;5071857;28;943;-69
2023/04/20 05:22:19;;;;;;;;;;;;;;;;;;5073691;28;883;-68
2023/04/20 05:24:44;;;;;;;;;;;;;;;;;;5074045;28;939;-68
2023/04/20 05:27:10;;;;;;;;;;;;;;;;;;5055859;28;1324;-69
2023/04/20 05:29:37;;;;;;;;;;;;;;;;;;5073789;28;840;-69
2023/04/20 05:32:02;;;;;;;;;;;;;;;;;;5071325;28;1242;-68
2023/04/20 05:34:27;;;;;;;;;;;;;;;;;;5058263;28;1222;-68
2023/04/20 05:36:53;;;;;;;;;;;;;;;;;;5058949;28;1898;-68
2023/04/20 05:39:19;;;;;;;;;;;;;;;;;;5059103;28;1243;-69
2023/04/20 05:41:45;;;;;;;;;;;;;;;;;;5055448;28;1203;-68
2023/04/20 05:44:10;;;;;;;;;;;;;;;;;;5052870;28;1186;-69
2023/04/20 05:46:36;;;;;;;;;;;;;;;;;;5053926;28;817;-68
2023/04/20 05:49:01;;;;;;;;;;;;;;;;;;5052415;28;1336;-68
2023/04/20 05:51:30;;;;;;;;;;;;;;;;;;5053387;28;971;-68
2023/04/20 05:53:55;;;;;;;;;;;;;;;;;;5052349;28;1225;-68
2023/04/20 05:56:21;;;;;;;;;;;;;;;;;;5053184;28;1922;-69
2023/04/20 05:58:47;;;;;;;;;;;;;;;;;;5051842;28;1253;-69
2023/04/20 06:01:12;;;;;;;;;;;;;;;;;;5035184;28;1315;-69
2023/04/20 06:03:37;;;;;;;;;;;;;;;;;;5051677;28;1235;-69
2023/04/20 06:06:03;;;;;;;;;;;;;;;;;;5051952;28;907;-68
2023/04/20 06:08:28;;;;;;;;;;;;;;;;;;5051932;28;1168;-69
2023/04/20 06:10:57;;;;;;;;;;;;;;;;;;5053259;28;817;-69
2023/04/20 06:13:22;;;;;;;;;;;;;;;;;;5053135;28;817;-69
2023/04/20 06:15:47;;;;;;;;;;;;;;;;;;5053158;28;1914;-68
2023/04/20 06:18:13;;;;;;;;;;;;;;;;;;5053325;28;896;-68
2023/04/20 06:20:39;;;;;;;;;;;;;;;;;;5053261;28;892;-68
2023/04/20 06:23:04;;;;;;;;;;;;;;;;;;5053986;28;789;-69
2023/04/20 06:25:29;;;;;;;;;;;;;;;;;;5053116;28;996;-68
2023/04/20 06:27:55;;;;;;;;;;;;;;;;;;5051372;28;987;-68
2023/04/20 06:30:20;;;;;;;;;;;;;;;;;;5052881;28;940;-69
2023/04/20 06:32:45;;;;;;;;;;;;;;;;;;5052834;28;889;-68
2023/04/20 06:35:11;;;;;;;;;;;;;;;;;;5053440;28;1946;-69
2023/04/20 06:37:36;;;;;;;;;;;;;;;;;;5052302;28;1098;-69
2023/04/20 06:40:06;;;;;;;;;;;;;;;;;;5053193;28;1050;-69
2023/04/20 06:42:32;;;;;;;;;;;;;;;;;;5052642;28;900;-69
2023/04/20 06:44:57;;;;;;;;;;;;;;;;;;5052806;28;960;-69
2023/04/20 06:47:22;;;;;;;;;;;;;;;;;;5051162;28;924;-69
2023/04/20 06:49:48;;;;;;;;;;;;;;;;;;5051222;28;876;-69
2023/04/20 06:52:13;;;;;;;;;;;;;;;;;;5051676;28;1221;-69
2023/04/20 06:54:38;;;;;;;;;;;;;;;;;;5050526;28;1463;-69
2023/04/20 06:57:04;;;;;;;;;;;;;;;;;;5050840;28;1965;-69
2023/04/20 06:59:29;;;;;;;;;;;;;;;;;;5033225;28;1338;-69
2023/04/20 07:01:54;;;;;;;;;;;;;;;;;;5052014;28;903;-69
2023/04/20 07:04:20;;;;;;;;;;;;;;;;;;5051883;28;841;-69
2023/04/20 07:06:47;;;;;;;;;;;;;;;;;;5050477;28;1272;-69
2023/04/20 07:09:13;;;;;;;;;;;;;;;;;;5050671;28;1408;-69
2023/04/20 07:11:38;;;;;;;;;;;;;;;;;;5033867;28;1259;-69
2023/04/20 07:14:03;;;;;;;;;;;;;;;;;;5052046;28;869;-69
2023/04/20 07:16:29;;;;;;;;;;;;;;;;;;5050962;28;1894;-69
2023/04/20 07:18:54;;;;;;;;;;;;;;;;;;5050934;28;1243;-69
2023/04/20 07:21:19;;;;;;;;;;;;;;;;;;5051213;28;805;-69
2023/04/20 07:23:45;;;;;;;;;;;;;;;;;;5051034;28;826;-70
2023/04/20 07:26:10;;;;;;;;;;;;;;;;;;5051443;28;1349;-69
2023/04/20 07:28:36;;;;;;;;;;;;;;;;;;5051040;28;1322;-69
2023/04/20 07:31:01;;;;;;;;;;;;;;;;;;5052309;28;902;-68
2023/04/20 07:33:28;;;;;;;;;;;;;;;;;;5052469;28;908;-69
2023/04/20 07:35:53;;;;;;;;;;;;;;;;;;5050767;28;1964;-68
2023/04/20 07:38:19;;;;;;;;;;;;;;;;;;5034592;28;1182;-69
2023/04/20 07:40:44;;;;;;;;;;;;;;;;;;5033742;28;1096;-69
2023/04/20 07:43:09;;;;;;;;;;;;;;;;;;5052023;28;1256;-69
2023/04/20 07:45:38;;;;;;;;;;;;;;;;;;5053938;28;1160;-69
2023/04/20 07:48:04;;;;;;;;;;;;;;;;;;5056194;28;810;-68
2023/04/20 07:50:29;;;;;;;;;;;;;;;;;;5055449;28;885;-69
2023/04/20 07:52:54;;;;;;;;;;;;;;;;;;5054769;28;940;-69
2023/04/20 07:55:20;;;;;;;;;;;;;;;;;;5054816;28;1993;-69
2023/04/20 07:57:45;;;;;;;;;;;;;;;;;;5055052;28;1242;-69
2023/04/20 08:00:12;;;;;;;;;;;;;;;;;;5054958;28;1219;-69
2023/04/20 08:02:37;;;;;;;;;;;;;;;;;;5054452;28;856;-68
2023/04/20 08:05:03;;;;;;;;;;;;;;;;;;5056135;28;840;-69
2023/04/20 08:07:28;;;;;;;;;;;;;;;;;;5054232;28;1262;-69
2023/04/20 08:09:53;;;;;;;;;;;;;;;;;;5054220;28;1042;-68
2023/04/20 08:12:19;;;;;;;;;;;;;;;;;;5054203;28;1263;-69
2023/04/20 08:14:44;;;;;;;;;;;;;;;;;;5053682;28;1265;-69
2023/04/20 08:17:09;;;;;;;;;;;;;;;;;;5055530;28;1902;-69
2023/04/20 08:19:35;;;;;;;;;;;;;;;;;;5053632;28;1183;-69
2023/04/20 08:22:00;;;;;;;;;;;;;;;;;;5053226;28;844;-69
2023/04/20 08:24:25;;;;;;;;;;;;;;;;;;5052234;28;896;-69
2023/04/20 08:26:51;;;;;;;;;;;;;;;;;;5051047;28;916;-69
2023/04/20 08:29:16;;;;;;;;;;;;;;;;;;5051811;28;888;-69
2023/04/20 08:31:41;;;;;;;;;;;;;;;;;;5051686;28;868;-69
2023/04/20 08:34:06;;;;;;;;;;;;;;;;;;5068226;28;1333;-69
2023/04/20 08:36:32;;;;;;;;;;;;;;;;;;5051043;28;1894;-69
2023/04/20 08:39:05;;;;;;;;;;;;;;;;;;5053242;28;849;-69
2023/04/20 08:41:31;;;;;;;;;;;;;;;;;;5054168;28;888;-70
2023/04/20 08:43:56;;;;;;;;;;;;;;;;;;5052994;28;1203;-69
2023/04/20 08:46:23;;;;;;;;;;;;;;;;;;5052830;28;1268;-69
2023/04/20 08:48:49;;;;;;;;;;;;;;;;;;5053492;28;896;-69
2023/04/20 08:51:16;;;;;;;;;;;;;;;;;;5052776;28;1189;-69
2023/04/20 08:53:42;;;;;;;;;;;;;;;;;;5052461;28;935;-69
2023/04/20 08:56:07;;;;;;;;;;;;;;;;;;5052512;28;1956;-69
2023/04/20 08:58:32;;;;;;;;;;;;;;;;;;5052910;28;869;-69
2023/04/20 09:00:59;;;;;;;;;;;;;;;;;;5052791;28;863;-69
2023/04/20 09:03:31;;;;;;;;;;;;;;;;;;5053331;28;872;-69
2023/04/20 09:05:57;;;;;;;;;;;;;;;;;;5053005;28;1229;-69
2023/04/20 09:08:32;;;;;;;;;;;;;;;;;;5036274;28;1361;-68
2023/04/20 09:10:58;;;;;;;;;;;;;;;;;;5054155;28;963;-68
2023/04/20 09:13:24;;;;;;;;;;;;;;;;;;5036476;28;1338;-69
2023/04/20 09:15:49;;;;;;;;;;;;;;;;;;5054036;28;2016;-69
2023/04/20 09:18:16;;;;;;;;;;;;;;;;;;5040733;28;1208;-69
2023/04/20 09:20:41;;;;;;;;;;;;;;;;;;5052942;28;833;-68
2023/04/20 09:23:14;;;;;;;;;;;;;;;;;;5052902;28;1111;-69
2023/04/20 09:25:43;;;;;;;;;;;;;;;;;;5052801;28;1228;-69
2023/04/20 09:28:09;;;;;;;;;;;;;;;;;;5053323;28;1238;-69
2023/04/20 09:30:48;;;;;;;;;;;;;;;;;;5053968;28;731;-69
2023/04/20 09:33:13;;;;;;;;;;;;;;;;;;5053017;28;914;-69
2023/04/20 09:35:40;;;;;;;;;;;;;;;;;;5053570;28;1907;-69
2023/04/20 09:38:06;;;;;;;;;;;;;;;;;;5054704;28;817;-69
2023/04/20 09:40:32;;;;;;;;;;;;;;;;;;5053442;28;1332;-70
2023/04/20 09:43:01;;;;;;;;;;;;;;;;;;5053294;28;837;-69
2023/04/20 09:45:27;;;;;;;;;;;;;;;;;;5054269;28;999;-70
2023/04/20 09:47:53;;;;;;;;;;;;;;;;;;5053860;28;904;-70
2023/04/20 09:50:19;;;;;;;;;;;;;;;;;;5054128;28;813;-69
2023/04/20 09:52:48;;;;;;;;;;;;;;;;;;5053503;28;909;-69
2023/04/20 09:55:13;;;;;;;;;;;;;;;;;;5053677;28;1918;-69
2023/04/20 09:57:39;;;;;;;;;;;;;;;;;;5053518;28;901;-69
2023/04/20 10:00:05;;;;;;;;;;;;;;;;;;5054025;28;876;-70
2023/04/20 10:02:31;;;;;;;;;;;;;;;;;;5036011;28;1398;-70
2023/04/20 10:04:57;;;;;;;;;;;;;;;;;;5051449;28;963;-70
2023/04/20 10:07:23;;;;;;;;;;;;;;;;;;5052797;28;932;-69
2023/04/20 10:10:00;;;;;;;;;;;;;;;;;;5051909;28;927;-69
2023/04/20 10:12:26;;;;;;;;;;;;;;;;;;5053094;28;1011;-69
2023/04/20 10:14:55;;;;;;;;;;;;;;;;;;5052683;28;1961;-69
2023/04/20 10:17:28;;;;;;;;;;;;;;;;;;5053222;28;849;-70
2023/04/20 10:19:53;;;;;;;;;;;;;;;;;;5052713;28;843;-70
2023/04/20 10:22:31;;;;;;;;;;;;;;;;;;5050570;28;1218;-70
2023/04/20 10:24:56;;;;;;;;;;;;;;;;;;5052560;28;892;-70
2023/04/20 10:27:22;;;;;;;;;;;;;;;;;;5052926;28;750;-69
2023/04/20 10:29:47;;;;;;;;;;;;;;;;;;5035026;28;1456;-69
2023/04/20 10:32:26;;;;;;;;;;;;;;;;;;5052547;28;888;-69
2023/04/20 10:35:05;;;;;;;;;;;;;;;;;;5050832;28;1291;-69
2023/04/20 10:37:31;;;;;;;;;;;;;;;;;;5051108;28;1296;-69
2023/04/20 10:39:56;;;;;;;;;;;;;;;;;;5051215;28;1356;-69
2023/04/20 10:42:21;;;;;;;;;;;;;;;;;;5053541;28;935;-69
2023/04/20 10:44:50;;;;;;;;;;;;;;;;;;5052170;28;801;-69
2023/04/20 10:47:17;;;;;;;;;;;;;;;;;;5051280;28;801;-70
2023/04/20 10:49:42;;;;;;;;;;;;;;;;;;5050856;28;1263;-69
2023/04/20 10:52:07;;;;;;;;;;;;;;;;;;5052747;28;801;-70
2023/04/20 10:54:36;;;;;;;;;;;;;;;;;;5051515;28;810;-69
2023/04/20 10:57:02;;;;;;;;;;;;;;;;;;5052389;28;1922;-69
2023/04/20 10:59:27;;;;;;;;;;;;;;;;;;5053031;28;888;-70
2023/04/20 11:01:54;;;;;;;;;;;;;;;;;;5050984;28;1186;-70
2023/04/20 11:04:28;;;;;;;;;;;;;;;;;;5053144;28;860;-67
2023/04/20 11:06:54;;;;;;;;;;;;;;;;;;5052918;28;995;-69
2023/04/20 11:09:21;;;;;;;;;;;;;;;;;;5052113;28;920;-70
2023/04/20 11:12:07;;;;;;;;;;;;;;;;;;5051208;28;882;-70
2023/04/20 11:14:33;;;;;;;;;;;;;;;;;;5052830;28;1006;-69
2023/04/20 11:16:59;;;;;;;;;;;;;;;;;;5050856;28;1898;-69
2023/04/20 11:19:25;;;;;;;;;;;;;;;;;;5056309;28;837;-69
2023/04/20 11:21:51;;;;;;;;;;;;;;;;;;5056566;28;882;-69
2023/04/20 11:24:23;;;;;;;;;;;;;;;;;;5056588;28;1051;-70
2023/04/20 11:26:49;;;;;;;;;;;;;;;;;;5056206;28;845;-69
2023/04/20 11:29:26;;;;;;;;;;;;;;;;;;5056735;28;900;-69
2023/04/20 11:31:52;;;;;;;;;;;;;;;;;;5055436;28;901;-69
2023/04/20 11:34:17;;;;;;;;;;;;;;;;;;5055586;28;1047;-68
2023/04/20 11:36:42;;;;;;;;;;;;;;;;;;5054234;28;1969;-68
2023/04/20 11:39:08;;;;;;;;;;;;;;;;;;5053994;28;1217;-67
2023/04/20 11:41:37;;;;;;;;;;;;;;;;;;5055523;28;797;-67
2023/04/20 11:44:03;;;;;;;;;;;;;;;;;;5054383;28;1208;-68
2023/04/20 11:46:33;;;;;;;;;;;;;;;;;;5037669;28;1214;-67
2023/04/20 11:48:59;;;;;;;;;;;;;;;;;;5053767;28;1222;-70
2023/04/20 11:51:26;;;;;;;;;;;;;;;;;;5055535;28;868;-70
2023/04/20 11:53:51;;;;;;;;;;;;;;;;;;5054394;28;837;-68
2023/04/20 11:56:16;;;;;;;;;;;;;;;;;;5053941;28;1977;-69
2023/04/20 11:58:42;;;;;;;;;;;;;;;;;;5055507;28;845;-69
2023/04/20 12:01:08;;;;;;;;;;;;;;;;;;5053890;28;846;-68
2023/04/20 12:03:33;;;;;;;;;;;;;;;;;;5053660;28;936;-68
2023/04/20 12:05:58;;;;;;;;;;;;;;;;;;5052435;28;793;-67
2023/04/20 12:08:23;;;;;;;;;;;;;;;;;;5052010;28;1167;-67
2023/04/20 12:10:49;;;;;;;;;;;;;;;;;;5035116;28;1180;-66
2023/04/20 12:13:14;;;;;;;;;;;;;;;;;;5053379;28;840;-67
2023/04/20 12:15:40;;;;;;;;;;;;;;;;;;5035458;28;1902;-67
2023/04/20 12:18:05;;;;;;;;;;;;;;;;;;5052793;28;1236;-67
2023/04/20 12:20:31;;;;;;;;;;;;;;;;;;5054652;28;785;-67
2023/04/20 12:22:56;;;;;;;;;;;;;;;;;;5053464;28;1275;-66
2023/04/20 12:25:21;;;;;;;;;;;;;;;;;;5053401;28;897;-66
2023/04/20 12:27:47;;;;;;;;;;;;;;;;;;5052951;28;1219;-66
2023/04/20 12:30:12;;;;;;;;;;;;;;;;;;5053071;28;837;-66
2023/04/20 12:32:38;;;;;;;;;;;;;;;;;;5054562;28;833;-66
2023/04/20 12:35:04;;;;;;;;;;;;;;;;;;5052668;28;1902;-66
2023/04/20 12:37:29;;;;;;;;;;;;;;;;;;5053818;28;1169;-66
2023/04/20 12:39:56;;;;;;;;;;;;;;;;;;5054258;28;1434;-66
2023/04/20 12:42:21;;;;;;;;;;;;;;;;;;5054528;28;1268;-67
2023/04/20 12:44:47;;;;;;;;;;;;;;;;;;5054725;28;1179;-66
2023/04/20 12:47:12;;;;;;;;;;;;;;;;;;5056455;28;1008;-66
2023/04/20 12:49:37;;;;;;;;;;;;;;;;;;5037995;28;1282;-66
2023/04/20 12:52:03;;;;;;;;;;;;;;;;;;5056077;28;821;-66
2023/04/20 12:54:28;;;;;;;;;;;;;;;;;;5054903;28;853;-66
2023/04/20 12:56:53;;;;;;;;;;;;;;;;;;5056473;28;1951;-68
2023/04/20 12:59:19;;;;;;;;;;;;;;;;;;5040513;28;1252;-66
2023/04/20 13:01:44;;;;;;;;;;;;;;;;;;5057786;28;902;-68
2023/04/20 13:04:09;;;;;;;;;;;;;;;;;;5042053;28;1255;-68
2023/04/20 13:06:35;;;;;;;;;;;;;;;;;;5060383;28;841;-68
2023/04/20 13:09:02;;;;;;;;;;;;;;;;;;5056023;28;1189;-68
2023/04/20 13:11:28;;;;;;;;;;;;;;;;;;5059786;28;1219;-68
2023/04/20 13:13:55;;;;;;;;;;;;;;;;;;5058655;28;932;-68
2023/04/20 13:16:20;;;;;;;;;;;;;;;;;;5054662;28;1890;-67
2023/04/20 13:18:45;;;;;;;;;;;;;;;;;;5052831;28;1200;-67
2023/04/20 13:21:11;;;;;;;;;;;;;;;;;;5054165;28;837;-67
2023/04/20 13:23:37;;;;;;;;;;;;;;;;;;5055614;28;943;-67
2023/04/20 13:26:02;;;;;;;;;;;;;;;;;;5036089;28;1382;-68
2023/04/20 13:28:27;;;;;;;;;;;;;;;;;;5054512;28;999;-67
2023/04/20 13:30:54;;;;;;;;;;;;;;;;;;5054701;28;762;-67
2023/04/20 13:33:19;;;;;;;;;;;;;;;;;;5051810;28;1296;-68
2023/04/20 13:35:45;;;;;;;;;;;;;;;;;;5053897;28;1910;-67
2023/04/20 13:38:10;;;;;;;;;;;;;;;;;;5052262;28;1271;-68
2023/04/20 13:40:35;;;;;;;;;;;;;;;;;;5051784;28;1150;-67
2023/04/20 13:43:01;;;;;;;;;;;;;;;;;;5051743;28;1288;-68
2023/04/20 13:45:26;;;;;;;;;;;;;;;;;;5053119;28;1039;-68
2023/04/20 13:47:52;;;;;;;;;;;;;;;;;;5059875;28;1301;-67
2023/04/20 13:50:17;;;;;;;;;;;;;;;;;;5073188;28;877;-68
2023/04/20 13:52:43;;;;;;;;;;;;;;;;;;5072369;28;786;-68
2023/04/20 13:55:08;;;;;;;;;;;;;;;;;;5071680;28;1910;-68
2023/04/20 13:57:33;;;;;;;;;;;;;;;;;;5063160;28;1261;-68
2023/04/20 13:59:59;;;;;;;;;;;;;;;;;;5052648;28;1168;-68
2023/04/20 14:02:26;;;;;;;;;;;;;;;;;;5051333;28;1217;-68
2023/04/20 14:04:51;;;;;;;;;;;;;;;;;;5052851;28;836;-68
2023/04/20 14:07:16;;;;;;;;;;;;;;;;;;5052104;28;812;-68
2023/04/20 14:09:45;;;;;;;;;;;;;;;;;;5051503;28;1218;-68
2023/04/20 14:12:11;;;;;;;;;;;;;;;;;;5051448;28;1094;-68
2023/04/20 14:14:37;;;;;;;;;;;;;;;;;;5053214;28;1021;-68
2023/04/20 14:17:02;;;;;;;;;;;;;;;;;;5051207;28;1989;-68
2023/04/20 14:19:27;;;;;;;;;;;;;;;;;;5052519;28;844;-68
2023/04/20 14:21:52;;;;;;;;;;;;;;;;;;5052930;28;1019;-68
2023/04/20 14:24:18;;;;;;;;;;;;;;;;;;5052489;28;956;-68
2023/04/20 14:26:43;;;;;;;;;;;;;;;;;;5051866;28;900;-67
2023/04/20 14:29:08;;;;;;;;;;;;;;;;;;5051929;28;1274;-68
2023/04/20 14:31:34;;;;;;;;;;;;;;;;;;5053356;28;821;-68
2023/04/20 14:33:59;;;;;;;;;;;;;;;;;;5053792;28;833;-68
2023/04/20 14:36:24;;;;;;;;;;;;;;;;;;5053390;28;1898;-68
2023/04/20 14:38:50;;;;;;;;;;;;;;;;;;5054228;28;1043;-68
2023/04/20 14:41:15;;;;;;;;;;;;;;;;;;5053003;28;833;-68
2023/04/20 14:43:41;;;;;;;;;;;;;;;;;;5034574;28;1350;-67
2023/04/20 14:46:06;;;;;;;;;;;;;;;;;;5050884;28;1172;-67
2023/04/20 14:48:31;;;;;;;;;;;;;;;;;;5051062;28;1258;-67
2023/04/20 14:50:57;;;;;;;;;;;;;;;;;;5051345;28;1097;-68
2023/04/20 14:53:22;;;;;;;;;;;;;;;;;;5056095;28;829;-68
2023/04/20 14:55:47;;;;;;;;;;;;;;;;;;5054563;28;1914;-68
2023/04/20 14:58:15;;;;;;;;;;;;;;;;;;5038325;28;1226;-67
2023/04/20 15:00:41;;;;;;;;;;;;;;;;;;5056375;28;896;-67
2023/04/20 15:03:06;;;;;;;;;;;;;;;;;;5054444;28;1263;-67
2023/04/20 15:05:32;;;;;;;;;;;;;;;;;;5056662;28;824;-67
2023/04/20 15:07:57;;;;;;;;;;;;;;;;;;5054625;28;1206;-68
2023/04/20 15:10:22;;;;;;;;;;;;;;;;;;5054640;28;884;-68
2023/04/20 15:12:48;;;;;;;;;;;;;;;;;;5054423;28;1151;-67
2023/04/20 15:15:13;;;;;;;;;;;;;;;;;;5055932;28;1981;-67
2023/04/20 15:17:39;;;;;;;;;;;;;;;;;;5054591;28;1257;-68
2023/04/20 15:20:05;;;;;;;;;;;;;;;;;;5055746;28;820;-67
2023/04/20 15:22:30;;;;;;;;;;;;;;;;;;5054687;28;1263;-67
2023/04/20 15:24:56;;;;;;;;;;;;;;;;;;5053980;28;1193;-67
2023/04/20 15:27:21;;;;;;;;;;;;;;;;;;5054296;28;880;-67
2023/04/20 15:29:46;;;;;;;;;;;;;;;;;;5055687;28;967;-67
2023/04/20 15:32:12;;;;;;;;;;;;;;;;;;5055905;28;845;-67
2023/04/20 15:34:37;;;;;;;;;;;;;;;;;;5055497;28;1034;-67
2023/04/20 15:37:02;;;;;;;;;;;;;;;;;;5055193;28;1959;-67
2023/04/20 15:39:27;;;;;;;;;;;;;;;;;;5037504;28;1211;-67
2023/04/20 15:41:53;;;;;;;;;;;;;;;;;;5037370;28;1378;-67
2023/04/20 15:44:19;;;;;;;;;;;;;;;;;;5054856;28;1377;-67
2023/04/20 15:46:44;;;;;;;;;;;;;;;;;;5054448;28;1286;-67
2023/04/20 15:49:09;;;;;;;;;;;;;;;;;;5056026;28;908;-67
2023/04/20 15:51:34;;;;;;;;;;;;;;;;;;5055201;28;771;-67
2023/04/20 15:54:00;;;;;;;;;;;;;;;;;;5054764;28;1364;-67
2023/04/20 15:56:25;;;;;;;;;;;;;;;;;;5055826;28;1926;-67
2023/04/20 15:58:51;;;;;;;;;;;;;;;;;;5055684;28;939;-67
2023/04/20 16:01:17;;;;;;;;;;;;;;;;;;5055483;28;956;-68
2023/04/20 16:03:43;;;;;;;;;;;;;;;;;;5055449;28;824;-68
2023/04/20 16:06:09;;;;;;;;;;;;;;;;;;5056313;28;821;-68
2023/04/20 16:08:34;;;;;;;;;;;;;;;;;;5055530;28;908;-68
2023/04/20 16:10:59;;;;;;;;;;;;;;;;;;5055509;28;837;-68
2023/04/20 16:13:27;;;;;;;;;;;;;;;;;;5053795;28;825;-67
2023/04/20 16:15:53;;;;;;;;;;;;;;;;;;5054704;28;1975;-67
2023/04/20 16:18:18;;;;;;;;;;;;;;;;;;5053532;28;1179;-67
2023/04/20 16:20:44;;;;;;;;;;;;;;;;;;5053980;28;1336;-67
2023/04/20 16:23:09;;;;;;;;;;;;;;;;;;5055503;28;861;-67
2023/04/20 16:25:37;;;;;;;;;;;;;;;;;;5054609;28;1073;-67
2023/04/20 16:28:02;;;;;;;;;;;;;;;;;;5054489;28;825;-67
2023/04/20 16:30:27;;;;;;;;;;;;;;;;;;5053415;28;1331;-67
2023/04/20 16:32:53;;;;;;;;;;;;;;;;;;5054627;28;841;-67
2023/04/20 16:35:18;;;;;;;;;;;;;;;;;;5052891;28;1897;-67
2023/04/20 16:37:44;;;;;;;;;;;;;;;;;;5053186;28;1249;-68
2023/04/20 16:40:09;;;;;;;;;;;;;;;;;;5054037;28;801;-67
2023/04/20 16:42:34;;;;;;;;;;;;;;;;;;5054698;28;873;-68
2023/04/20 16:45:00;;;;;;;;;;;;;;;;;;5054209;28;885;-68
2023/04/20 16:47:25;;;;;;;;;;;;;;;;;;5053112;28;967;-67
2023/04/20 16:49:51;;;;;;;;;;;;;;;;;;5052847;28;817;-67
2023/04/20 16:52:16;;;;;;;;;;;;;;;;;;5052544;28;787;-67
2023/04/20 16:54:41;;;;;;;;;;;;;;;;;;5069334;28;1198;-67
2023/04/20 16:57:07;;;;;;;;;;;;;;;;;;5053947;28;1977;-67
2023/04/20 16:59:33;;;;;;;;;;;;;;;;;;5052597;28;873;-67
2023/04/20 17:01:58;;;;;;;;;;;;;;;;;;5054427;28;1067;-67